EWG2031 EDDW-EDDS
Flight info
| Callsign | EWG2031 |
|---|---|
| Flight time | N/A |
| Altitude | 37000 |
| Route | NIE6Z NIE Z88 SAS DCT BERXO DCT SILWE DCT OSBIT P605 TOSTU T726 LBU |
| Aircraft | A320/M-SDE3FGHIRWY/LB1 |
Departure
| Time | 2026-05-03 21:27 |
|---|---|
| Airport | Bremen Airport (EDDW) |
Arrival
| Time | N/A |
|---|---|
| Airport | Stuttgart Airport (EDDS) |
| Time | Latitude | Longitude | Altitude | Speed | Heading |
|---|---|---|---|---|---|
| 2026-05-03 21:24 | 53.04801 | 8.80467 | 20 ft | 0 kts | 176° |
| 2026-05-03 21:26 | 53.04799 | 8.80467 | 20 ft | 2 kts | 176° |
| 2026-05-03 21:26 | 53.04735 | 8.80428 | 24 ft | 13 kts | 239° |
| 2026-05-03 21:26 | 53.04719 | 8.80164 | 21 ft | 53 kts | 266° |
| 2026-05-03 21:27 | 53.04690 | 8.79047 | 28 ft | 135 kts | 266° |
| 2026-05-03 21:27 | 53.04683 | 8.77410 | 776 ft | 141 kts | 269° |
| 2026-05-03 21:27 | 53.04456 | 8.75842 | 1696 ft | 148 kts | 239° |
| 2026-05-03 21:27 | 53.03590 | 8.74664 | 2356 ft | 180 kts | 208° |
| 2026-05-03 21:28 | 53.02329 | 8.73927 | 2977 ft | 202 kts | 204° |
| 2026-05-03 21:28 | 53.00945 | 8.73123 | 3698 ft | 224 kts | 204° |
| 2026-05-03 21:28 | 52.99324 | 8.72480 | 4557 ft | 252 kts | 183° |
| 2026-05-03 21:28 | 52.97618 | 8.73401 | 5636 ft | 274 kts | 152° |
| 2026-05-03 21:29 | 52.96147 | 8.75482 | 6860 ft | 283 kts | 137° |
| 2026-05-03 21:29 | 52.94845 | 8.77980 | 8062 ft | 289 kts | 133° |
| 2026-05-03 21:29 | 52.93589 | 8.80621 | 9256 ft | 294 kts | 132° |
| 2026-05-03 21:29 | 52.92299 | 8.83313 | 10360 ft | 305 kts | 132° |
| 2026-05-03 21:30 | 52.90893 | 8.86124 | 11049 ft | 326 kts | 134° |
| 2026-05-03 21:30 | 52.89388 | 8.89004 | 12048 ft | 334 kts | 135° |
| 2026-05-03 21:30 | 52.87827 | 8.91902 | 13122 ft | 340 kts | 136° |
| 2026-05-03 21:30 | 52.86218 | 8.94829 | 14115 ft | 346 kts | 137° |
| 2026-05-03 21:31 | 52.84582 | 8.97779 | 15046 ft | 350 kts | 137° |
| 2026-05-03 21:31 | 52.82924 | 9.00756 | 15970 ft | 354 kts | 137° |
| 2026-05-03 21:31 | 52.81250 | 9.03762 | 16903 ft | 357 kts | 138° |
| 2026-05-03 21:31 | 52.79557 | 9.06803 | 17844 ft | 361 kts | 138° |
| 2026-05-03 21:32 | 52.77851 | 9.09868 | 18669 ft | 364 kts | 138° |
| 2026-05-03 21:32 | 52.76127 | 9.12963 | 19470 ft | 368 kts | 139° |
| 2026-05-03 21:32 | 52.74388 | 9.16082 | 20291 ft | 370 kts | 139° |
| 2026-05-03 21:32 | 52.72635 | 9.19225 | 21101 ft | 373 kts | 139° |
| 2026-05-03 21:33 | 52.71466 | 9.21324 | 21634 ft | 375 kts | 139° |
| 2026-05-03 21:33 | 52.69698 | 9.24502 | 22428 ft | 378 kts | 139° |
| 2026-05-03 21:33 | 52.67913 | 9.27705 | 23197 ft | 381 kts | 139° |
| 2026-05-03 21:33 | 52.66108 | 9.30928 | 23883 ft | 383 kts | 139° |
| 2026-05-03 21:34 | 52.64289 | 9.34167 | 24508 ft | 387 kts | 139° |
| 2026-05-03 21:34 | 52.62426 | 9.37385 | 25094 ft | 387 kts | 143° |
| 2026-05-03 21:34 | 52.60375 | 9.40269 | 25692 ft | 388 kts | 146° |
| 2026-05-03 21:34 | 52.58324 | 9.43093 | 26272 ft | 391 kts | 146° |
| 2026-05-03 21:35 | 52.56200 | 9.46012 | 26860 ft | 395 kts | 146° |
| 2026-05-03 21:35 | 52.54082 | 9.48919 | 27435 ft | 398 kts | 146° |
| 2026-05-03 21:35 | 52.51974 | 9.51811 | 27990 ft | 402 kts | 146° |
| 2026-05-03 21:35 | 52.49822 | 9.54761 | 28538 ft | 405 kts | 146° |
| 2026-05-03 21:36 | 52.47649 | 9.57737 | 29079 ft | 409 kts | 146° |
| 2026-05-03 21:36 | 52.45454 | 9.60738 | 29608 ft | 412 kts | 146° |
| 2026-05-03 21:36 | 52.43239 | 9.63762 | 30121 ft | 415 kts | 146° |
| 2026-05-03 21:36 | 52.41008 | 9.66803 | 30571 ft | 418 kts | 146° |
| 2026-05-03 21:37 | 52.38764 | 9.69855 | 31026 ft | 421 kts | 146° |
| 2026-05-03 21:37 | 52.36503 | 9.72929 | 31475 ft | 423 kts | 146° |
| 2026-05-03 21:37 | 52.34233 | 9.76015 | 32003 ft | 423 kts | 146° |
| 2026-05-03 21:37 | 52.31979 | 9.79082 | 32639 ft | 421 kts | 146° |
| 2026-05-03 21:38 | 52.29731 | 9.82135 | 33283 ft | 418 kts | 146° |
| 2026-05-03 21:38 | 52.27379 | 9.84856 | 33891 ft | 410 kts | 155° |
| 2026-05-03 21:38 | 52.24823 | 9.86816 | 34410 ft | 403 kts | 165° |
| 2026-05-03 21:38 | 52.22139 | 9.88010 | 34846 ft | 398 kts | 174° |
| 2026-05-03 21:39 | 52.19400 | 9.88432 | 35240 ft | 394 kts | 183° |
| 2026-05-03 21:39 | 52.16655 | 9.88414 | 35603 ft | 396 kts | 184° |
| 2026-05-03 21:39 | 52.13891 | 9.88395 | 35990 ft | 397 kts | 184° |
| 2026-05-03 21:39 | 52.11124 | 9.88384 | 36377 ft | 398 kts | 183° |
| 2026-05-03 21:40 | 52.08346 | 9.88381 | 36749 ft | 400 kts | 183° |
| 2026-05-03 21:40 | 52.05546 | 9.88377 | 36942 ft | 406 kts | 183° |
| 2026-05-03 21:40 | 51.99771 | 9.88357 | 36967 ft | 424 kts | 183° |
| 2026-05-03 21:41 | 51.93748 | 9.88350 | 36973 ft | 441 kts | 183° |
| 2026-05-03 21:41 | 51.87551 | 9.88350 | 37168 ft | 452 kts | 183° |
| 2026-05-03 21:42 | 51.81405 | 9.88361 | 37016 ft | 427 kts | 183° |
| 2026-05-03 21:42 | 51.78486 | 9.88368 | 36963 ft | 411 kts | 183° |
| 2026-05-03 21:42 | 51.75675 | 9.88364 | 36978 ft | 399 kts | 184° |
| 2026-05-03 21:43 | 51.70186 | 9.88327 | 36977 ft | 392 kts | 184° |
| 2026-05-03 21:43 | 51.64728 | 9.88295 | 36983 ft | 391 kts | 184° |
| 2026-05-03 21:44 | 51.59277 | 9.88296 | 36984 ft | 392 kts | 183° |
| 2026-05-03 21:44 | 51.53851 | 9.88292 | 36988 ft | 392 kts | 184° |
| 2026-05-03 21:45 | 51.48401 | 9.88271 | 36990 ft | 392 kts | 184° |
| 2026-05-03 21:45 | 51.42940 | 9.88259 | 36989 ft | 392 kts | 183° |
| 2026-05-03 21:46 | 51.37486 | 9.88247 | 36975 ft | 391 kts | 183° |
| 2026-05-03 21:46 | 51.32038 | 9.88246 | 36976 ft | 392 kts | 183° |
| 2026-05-03 21:47 | 51.26577 | 9.88235 | 36983 ft | 392 kts | 183° |
| 2026-05-03 21:47 | 51.21154 | 9.88186 | 36987 ft | 391 kts | 185° |
| 2026-05-03 21:48 | 51.15716 | 9.87772 | 36995 ft | 391 kts | 187° |
| 2026-05-03 21:48 | 51.10284 | 9.87198 | 37000 ft | 391 kts | 187° |
| 2026-05-03 21:49 | 51.04851 | 9.86665 | 36998 ft | 390 kts | 186° |
| 2026-05-03 21:49 | 50.99425 | 9.86189 | 37000 ft | 390 kts | 186° |
| 2026-05-03 21:50 | 50.94006 | 9.85726 | 36991 ft | 390 kts | 186° |
| 2026-05-03 21:50 | 50.88590 | 9.85262 | 36992 ft | 390 kts | 186° |
| 2026-05-03 21:51 | 50.83214 | 9.84797 | 36991 ft | 389 kts | 186° |
| 2026-05-03 21:51 | 50.77806 | 9.84330 | 36990 ft | 389 kts | 186° |
| 2026-05-03 21:52 | 50.72398 | 9.83854 | 36987 ft | 389 kts | 186° |
| 2026-05-03 21:52 | 50.66989 | 9.83390 | 36988 ft | 389 kts | 186° |
| 2026-05-03 21:53 | 50.61581 | 9.82931 | 36968 ft | 389 kts | 186° |
| 2026-05-03 21:53 | 50.56160 | 9.82477 | 36974 ft | 390 kts | 186° |
| 2026-05-03 21:54 | 50.50723 | 9.82009 | 36978 ft | 391 kts | 186° |
| 2026-05-03 21:54 | 50.45322 | 9.81546 | 36973 ft | 392 kts | 186° |
| 2026-05-03 21:55 | 50.39874 | 9.81084 | 36979 ft | 392 kts | 186° |
| 2026-05-03 21:55 | 50.34416 | 9.80618 | 36990 ft | 393 kts | 186° |
| 2026-05-03 21:56 | 50.28956 | 9.80149 | 36986 ft | 393 kts | 186° |
| 2026-05-03 21:56 | 50.23492 | 9.79691 | 36986 ft | 393 kts | 186° |
| 2026-05-03 21:57 | 50.18023 | 9.79229 | 36993 ft | 394 kts | 186° |
| 2026-05-03 21:57 | 50.12550 | 9.78767 | 36894 ft | 396 kts | 186° |
| 2026-05-03 21:58 | 50.09803 | 9.78540 | 36632 ft | 395 kts | 186° |
| 2026-05-03 21:58 | 50.07067 | 9.78339 | 36248 ft | 391 kts | 183° |
| 2026-05-03 21:58 | 50.04357 | 9.78475 | 35734 ft | 389 kts | 181° |
| 2026-05-03 21:58 | 50.01659 | 9.78654 | 35204 ft | 386 kts | 181° |
| 2026-05-03 21:59 | 49.98989 | 9.78829 | 34666 ft | 383 kts | 181° |
| 2026-05-03 21:59 | 49.96334 | 9.78997 | 34127 ft | 381 kts | 180° |
| 2026-05-03 21:59 | 49.93729 | 9.79162 | 33547 ft | 378 kts | 180° |
| 2026-05-03 21:59 | 49.91111 | 9.79331 | 33011 ft | 374 kts | 180° |
| 2026-05-03 22:00 | 49.88486 | 9.79358 | 32211 ft | 373 kts | 189° |
| 2026-05-03 22:00 | 49.85948 | 9.78422 | 31191 ft | 378 kts | 199° |
| 2026-05-03 22:00 | 49.83407 | 9.77213 | 30197 ft | 385 kts | 199° |
| 2026-05-03 22:00 | 49.80872 | 9.75993 | 29314 ft | 387 kts | 199° |
| 2026-05-03 22:01 | 49.78323 | 9.74768 | 28648 ft | 378 kts | 199° |
| 2026-05-03 22:01 | 49.75839 | 9.73578 | 27492 ft | 371 kts | 199° |
| 2026-05-03 22:01 | 49.73393 | 9.72411 | 26341 ft | 366 kts | 199° |
| 2026-05-03 22:01 | 49.70973 | 9.71263 | 25242 ft | 361 kts | 199° |
| 2026-05-03 22:02 | 49.68584 | 9.70132 | 24188 ft | 356 kts | 198° |
| 2026-05-03 22:02 | 49.66226 | 9.69014 | 23099 ft | 353 kts | 199° |
| 2026-05-03 22:02 | 49.63927 | 9.67918 | 22572 ft | 339 kts | 199° |
| 2026-05-03 22:02 | 49.61686 | 9.66853 | 22112 ft | 335 kts | 199° |
| 2026-05-03 22:03 | 49.59477 | 9.65804 | 21660 ft | 331 kts | 199° |
| 2026-05-03 22:03 | 49.57286 | 9.64764 | 21185 ft | 327 kts | 199° |
| 2026-05-03 22:03 | 49.55122 | 9.63737 | 20722 ft | 324 kts | 199° |
| 2026-05-03 22:03 | 49.52978 | 9.62726 | 20278 ft | 321 kts | 199° |
| 2026-05-03 22:04 | 49.50850 | 9.61728 | 19833 ft | 318 kts | 199° |
| 2026-05-03 22:04 | 49.48740 | 9.60736 | 19392 ft | 316 kts | 199° |
| 2026-05-03 22:04 | 49.46640 | 9.59745 | 18958 ft | 315 kts | 199° |
| 2026-05-03 22:04 | 49.44553 | 9.58761 | 18524 ft | 314 kts | 199° |
| 2026-05-03 22:05 | 49.42471 | 9.57784 | 18057 ft | 313 kts | 199° |
| 2026-05-03 22:05 | 49.40397 | 9.56814 | 17618 ft | 310 kts | 199° |
| 2026-05-03 22:05 | 49.38346 | 9.55853 | 17205 ft | 307 kts | 199° |
| 2026-05-03 22:05 | 49.36307 | 9.54898 | 16787 ft | 305 kts | 199° |
| 2026-05-03 22:06 | 49.34289 | 9.53952 | 16380 ft | 303 kts | 199° |
| 2026-05-03 22:06 | 49.32281 | 9.53014 | 15973 ft | 301 kts | 199° |
| 2026-05-03 22:06 | 49.30283 | 9.52082 | 15574 ft | 299 kts | 199° |
| 2026-05-03 22:06 | 49.28294 | 9.51178 | 15102 ft | 299 kts | 195° |
| 2026-05-03 22:07 | 49.26175 | 9.50852 | 14315 ft | 312 kts | 185° |
| 2026-05-03 22:07 | 49.24000 | 9.50716 | 13857 ft | 311 kts | 185° |
| 2026-05-03 22:07 | 49.21854 | 9.50597 | 13419 ft | 307 kts | 185° |
| 2026-05-03 22:07 | 49.19753 | 9.50481 | 12752 ft | 298 kts | 185° |
| 2026-05-03 22:08 | 49.17736 | 9.50368 | 12335 ft | 282 kts | 185° |
| 2026-05-03 22:08 | 49.15779 | 9.50254 | 11939 ft | 280 kts | 185° |
| 2026-05-03 22:08 | 49.13839 | 9.50137 | 11550 ft | 278 kts | 185° |
| 2026-05-03 22:08 | 49.11927 | 9.50020 | 11205 ft | 274 kts | 184° |
| 2026-05-03 22:09 | 49.10043 | 9.49905 | 10779 ft | 274 kts | 184° |
| 2026-05-03 22:09 | 49.08125 | 9.49790 | 10375 ft | 272 kts | 184° |
| 2026-05-03 22:09 | 49.06262 | 9.49680 | 9983 ft | 270 kts | 184° |
| 2026-05-03 22:10 | 49.02522 | 9.49456 | 9079 ft | 268 kts | 184° |
| 2026-05-03 22:10 | 49.00668 | 9.49343 | 8641 ft | 265 kts | 184° |
| 2026-05-03 22:10 | 48.98831 | 9.49232 | 8214 ft | 263 kts | 184° |
| 2026-05-03 22:10 | 48.97003 | 9.49122 | 7768 ft | 262 kts | 184° |
| 2026-05-03 22:11 | 48.95187 | 9.49013 | 7323 ft | 261 kts | 185° |
| 2026-05-03 22:11 | 48.93367 | 9.48904 | 6871 ft | 261 kts | 185° |
| 2026-05-03 22:11 | 48.91593 | 9.48801 | 6526 ft | 245 kts | 185° |
| 2026-05-03 22:11 | 48.89945 | 9.48710 | 6132 ft | 231 kts | 185° |
| 2026-05-03 22:12 | 48.88347 | 9.48617 | 5600 ft | 229 kts | 185° |
| 2026-05-03 22:12 | 48.86756 | 9.48519 | 5159 ft | 228 kts | 185° |
| 2026-05-03 22:12 | 48.85171 | 9.48420 | 5078 ft | 229 kts | 186° |
| 2026-05-03 22:12 | 48.83597 | 9.48323 | 5007 ft | 221 kts | 186° |
| 2026-05-03 22:13 | 48.82102 | 9.48234 | 4897 ft | 210 kts | 186° |